Time;durP1;ratioP1;P1;durP2;ratioP2;P2;SDS_P1;SDS_P2;PMS_P1;PMS_P2;Temp;Humidity;BMP_temperature;BMP_pressure;BME280_temperature;BME280_humidity;BME280_pressure;Samples;Min_cycle;Max_cycle;Signal;HPM_P1;HPM_P2
2022/01/16 00:04:43;;;;;;;101.10;46.17;;;102.40;2227.20;;;;;;4919436;29;20028;-80
2022/01/16 00:07:09;;;;;;;102.50;51.47;;;102.40;2227.20;;;;;;4900541;29;20036;-76
2022/01/16 00:09:35;;;;;;;166.30;82.10;;;102.40;2227.20;;;;;;4897247;29;20032;-82
2022/01/16 00:12:06;;;;;;;145.60;73.22;;;102.40;2227.20;;;;;;4895069;29;20396;-76
2022/01/16 00:14:33;;;;;;;129.90;67.40;;;77.70;2227.20;;;;;;4895309;29;20146;-82
2022/01/16 00:16:59;;;;;;;104.25;50.72;;;77.70;2227.20;;;;;;4912717;29;20168;-76
2022/01/16 00:19:25;;;;;;;89.22;40.25;;;102.40;2227.20;;;;;;4898055;29;20504;-78
2022/01/16 00:21:51;;;;;;;83.80;40.42;;;102.50;2227.20;;;;;;4913664;29;20031;-77
2022/01/16 00:24:17;;;;;;;;;;;102.50;2227.20;;;;;;4914689;29;20025;-82
2022/01/16 00:26:42;;;;;;;143.13;70.53;;;102.40;2227.20;;;;;;4891346;29;19994;-81
2022/01/16 00:29:09;;;;;;;125.70;62.70;;;77.50;2227.20;;;;;;4896890;29;20032;-76
2022/01/16 00:31:37;;;;;;;94.90;49.60;;;77.20;2227.20;;;;;;4890802;29;20031;-79
2022/01/16 00:34:05;;;;;;;101.97;46.25;;;77.10;2227.20;;;;;;4899590;29;20388;-76
2022/01/16 00:36:30;;;;;;;90.13;44.78;;;77.20;2227.20;;;;;;4911274;29;20032;-81
2022/01/16 00:38:57;;;;;;;;;;;77.30;2227.20;;;;;;4893331;29;20048;-77
2022/01/16 00:41:24;;;;;;;103.78;51.30;;;77.30;2227.20;;;;;;4891909;29;19911;-82
2022/01/16 00:43:51;;;;;;;98.22;48.47;;;77.10;2227.20;;;;;;4889316;29;20025;-76
2022/01/16 00:46:19;;;;;;;98.72;49.60;;;77.00;2227.20;;;;;;4910649;29;20042;-79
2022/01/16 00:48:45;;;;;;;103.57;50.17;;;77.10;2227.20;;;;;;4912388;29;20095;-76
2022/01/16 00:51:11;;;;;;;102.68;46.63;;;77.20;2227.20;;;;;;4892130;29;20033;-76
2022/01/16 00:53:39;;;;;;;;;;;77.20;2227.20;;;;;;4895242;29;20120;-82
2022/01/16 00:56:06;;;;;;;94.88;45.53;;;77.00;2227.20;;;;;;4911622;29;19907;-76
2022/01/16 00:58:31;;;;;;;94.07;47.22;;;76.90;2227.20;;;;;;4902067;29;20090;-76
2022/01/16 01:00:57;;;;;;;;;;;76.90;2227.20;;;;;;4902808;29;20027;-76
2022/01/16 01:03:23;;;;;;;75.13;38.25;;;76.90;2227.20;;;;;;4917951;29;19914;-77
2022/01/16 01:05:49;;;;;;;;;;;52.10;2227.20;;;;;;4914778;29;20024;-82
2022/01/16 01:08:15;;;;;;;65.28;34.38;;;76.80;2227.20;;;;;;4898946;29;19997;-79
2022/01/16 01:10:43;;;;;;;;;;;76.90;2227.20;;;;;;4910985;29;20036;-75
2022/01/16 01:15:46;;;;;;;77.80;38.13;;;52.10;2227.20;;;;;;4910001;29;20017;-83
2022/01/16 01:18:12;;;;;;;81.15;38.67;;;52.10;2227.20;;;;;;4891345;29;20032;-77
2022/01/16 01:20:40;;;;;;;;;;;52.00;2227.20;;;;;;4909943;29;20040;-84
2022/01/16 01:23:07;;;;;;;82.90;37.40;;;51.90;2227.20;;;;;;4892874;29;19907;-76
2022/01/16 01:25:33;;;;;;;82.93;40.67;;;51.80;2227.20;;;;;;4892408;29;20493;-79
2022/01/16 01:27:58;;;;;;;;;;;51.90;2227.20;;;;;;4892906;29;20362;-82
2022/01/16 01:30:24;;;;;;;72.90;39.50;;;51.70;2227.20;;;;;;4896452;29;19922;-82
2022/01/16 01:32:54;;;;;;;80.72;39.13;;;51.80;2227.20;;;;;;4891981;29;20095;-75
2022/01/16 01:35:21;;;;;;;83.82;43.17;;;52.10;2227.20;;;;;;4894332;29;20030;-82
2022/01/16 01:37:47;;;;;;;76.07;41.83;;;77.00;2227.20;;;;;;4889519;29;20070;-82
2022/01/16 01:40:18;;;;;;;75.85;39.63;;;77.20;2227.20;;;;;;4892036;29;20033;-82
2022/01/16 01:51:20;;;;;;;76.85;40.45;;;77.40;2227.20;;;;;;4913098;29;20039;-76
2022/01/16 01:53:46;;;;;;;78.32;38.80;;;77.40;2227.20;;;;;;4910090;29;20032;-82
2022/01/16 01:56:17;;;;;;;75.65;41.28;;;77.40;2227.20;;;;;;4891157;29;20477;-76
2022/01/16 01:58:43;;;;;;;75.22;40.72;;;77.50;2227.20;;;;;;4893737;29;20551;-76
2022/01/16 02:01:08;;;;;;;;;;;77.40;2227.20;;;;;;4910775;29;20031;-76
2022/01/16 02:06:00;;;;;;;;;;;77.30;2227.20;;;;;;4910428;29;20020;-81
2022/01/16 02:08:26;;;;;;;77.70;40.50;;;77.30;2227.20;;;;;;4892774;29;19959;-81
2022/01/16 02:10:52;;;;;;;;;;;77.30;2227.20;;;;;;4907727;29;20130;-77
2022/01/16 02:13:28;;;;;;;72.40;36.25;;;77.20;2227.20;;;;;;4908377;29;19923;-78
2022/01/16 02:34:41;;;;;;;;;;;77.20;2227.20;;;;;;4823681;29;20150;-79
2022/01/16 02:37:10;;;;;;;68.75;36.15;;;77.20;2227.20;;;;;;4812778;29;19917;-81
2022/01/16 02:39:38;;;;;;;78.13;41.03;;;77.30;2227.20;;;;;;4816392;29;20074;-81
2022/01/16 02:42:06;;;;;;;88.75;44.25;;;77.30;2227.20;;;;;;4815971;29;20046;-81
2022/01/16 02:44:45;;;;;;;85.57;44.42;;;77.40;2227.20;;;;;;4822929;29;20027;-82
2022/01/16 02:47:13;;;;;;;86.65;43.45;;;77.50;2227.20;;;;;;4823489;29;20035;-80
2022/01/16 02:49:41;;;;;;;70.20;38.78;;;77.50;2227.20;;;;;;4822660;29;20134;-81
2022/01/16 02:52:12;;;;;;;78.00;39.97;;;77.60;2227.20;;;;;;4823135;29;20030;-82
2022/01/16 02:54:40;;;;;;;75.25;41.15;;;77.60;2227.20;;;;;;4823188;29;20042;-82
2022/01/16 02:57:17;;;;;;;80.97;42.13;;;77.70;2227.20;;;;;;4823291;29;20121;-81
2022/01/16 02:59:48;;;;;;;74.53;38.17;;;77.70;2227.20;;;;;;4824496;29;20048;-82
2022/01/16 03:02:16;;;;;;;73.60;39.58;;;77.60;2227.20;;;;;;4912355;29;20052;-82
2022/01/16 03:04:41;;;;;;;70.68;36.58;;;77.30;2227.20;;;;;;4907641;29;20028;-81
2022/01/16 03:07:07;;;;;;;74.72;36.75;;;77.20;2227.20;;;;;;4892222;29;20211;-75
2022/01/16 03:10:05;;;;;;;;;;;77.20;2227.20;;;;;;4892643;29;20571;-82
2022/01/16 03:12:19;;;;;;;66.95;34.95;;;77.10;2227.20;;;;;;4908218;29;20001;-82
2022/01/16 03:14:45;;;;;;;73.18;39.75;;;77.20;2227.20;;;;;;4889620;29;20426;-76
2022/01/16 03:17:11;;;;;;;;;;;76.90;2227.20;;;;;;4915810;29;20115;-80
2022/01/16 03:22:22;;;;;;;77.05;39.25;;;51.80;2227.20;;;;;;4908088;29;20040;-76
2022/01/16 03:24:47;;;;;;;85.38;42.85;;;51.90;2227.20;;;;;;4905955;29;20029;-81
2022/01/16 03:27:14;;;;;;;;;;;51.80;2227.20;;;;;;4890738;29;20452;-82
2022/01/16 03:29:43;;;;;;;57.20;30.55;;;51.70;2227.20;;;;;;4910821;29;19908;-82
2022/01/16 03:32:13;;;;;;;84.05;41.85;;;52.00;2227.20;;;;;;4907635;29;20123;-83
2022/01/16 03:34:38;;;;;;;77.30;40.60;;;52.10;2227.20;;;;;;4908898;29;20025;-81
2022/01/16 03:37:04;;;;;;;;;;;76.80;2227.20;;;;;;4909582;29;20370;-82
2022/01/16 03:39:30;;;;;;;78.05;40.17;;;76.90;2227.20;;;;;;4893325;29;19930;-82
2022/01/16 03:41:58;;;;;;;;;;;76.90;2227.20;;;;;;4899416;29;20016;-82
2022/01/16 03:44:24;;;;;;;76.88;38.30;;;76.80;2227.20;;;;;;4909446;29;19943;-82
2022/01/16 03:46:50;;;;;;;;;;;52.10;2227.20;;;;;;4906801;29;20114;-77
2022/01/16 03:49:18;;;;;;;87.47;43.13;;;52.10;2227.20;;;;;;4889740;29;20399;-75
2022/01/16 03:51:46;;;;;;;80.45;42.67;;;76.80;2227.20;;;;;;4908832;29;20024;-76
2022/01/16 03:54:14;;;;;;;93.53;47.50;;;76.80;2227.20;;;;;;4908451;29;20076;-82
2022/01/16 03:56:41;;;;;;;88.50;45.88;;;76.80;2227.20;;;;;;4906855;29;20021;-76
2022/01/16 03:59:07;;;;;;;92.28;46.83;;;76.80;2227.20;;;;;;4906720;29;20461;-81
2022/01/16 04:01:33;;;;;;;89.32;45.10;;;76.80;2227.20;;;;;;4894078;29;20023;-82
2022/01/16 04:03:58;;;;;;;;;;;51.90;2227.20;;;;;;4896877;29;20107;-76
2022/01/16 04:06:25;;;;;;;91.40;44.25;;;52.10;2227.20;;;;;;4901029;29;19955;-82
2022/01/16 04:08:53;;;;;;;99.18;49.35;;;76.90;2227.20;;;;;;4902625;29;20077;-76
2022/01/16 04:11:20;;;;;;;103.18;48.55;;;76.90;2227.20;;;;;;4911637;29;20037;-81
2022/01/16 04:13:51;;;;;;;88.50;44.15;;;77.00;2227.20;;;;;;4911303;29;20020;-75
2022/01/16 04:16:19;;;;;;;99.25;48.25;;;77.10;2227.20;;;;;;4895768;29;20025;-81
2022/01/16 04:18:50;;;;;;;92.82;47.67;;;77.00;2227.20;;;;;;4908543;29;20092;-81
2022/01/16 04:21:17;;;;;;;92.35;47.83;;;77.00;2227.20;;;;;;4892765;29;20024;-81
2022/01/16 04:23:43;;;;;;;95.53;48.05;;;76.90;2227.20;;;;;;4919937;29;20106;-81
2022/01/16 04:26:09;;;;;;;97.80;45.78;;;76.80;2227.20;;;;;;4903297;29;20112;-76
2022/01/16 04:28:34;;;;;;;;;;;52.00;2227.20;;;;;;4910081;29;20032;-76
2022/01/16 04:31:00;;;;;;;93.90;44.72;;;51.70;2227.20;;;;;;4911803;29;19907;-81
2022/01/16 04:33:26;;;;;;;;;;;51.60;2227.20;;;;;;4912427;29;20036;-82
2022/01/16 04:35:51;;;;;;;102.30;48.55;;;51.40;2227.20;;;;;;4909507;29;19962;-82
2022/01/16 04:38:17;;;;;;;;;;;51.40;2227.20;;;;;;4911113;29;20079;-78
2022/01/16 04:43:47;;;;;;;110.35;51.90;;;51.20;2227.20;;;;;;4908682;29;19918;-78
2022/01/16 04:43:47;;;;;;;95.63;48.95;;;51.30;2227.20;;;;;;4910964;29;20115;-76
2022/01/16 04:46:21;;;;;;;98.57;51.75;;;26.30;2201.60;;;;;;4913698;29;20039;-78
2022/01/16 04:48:49;;;;;;;102.32;48.22;;;26.10;2201.60;;;;;;4910159;29;20024;-76
2022/01/16 04:51:14;;;;;;;100.57;49.83;;;25.90;2201.60;;;;;;4909127;29;20024;-82
2022/01/16 04:53:41;;;;;;;;;;;25.90;2201.60;;;;;;4909609;29;20036;-75
2022/01/16 04:56:07;;;;;;;92.35;43.63;;;26.10;2201.60;;;;;;4909819;29;19907;-82
2022/01/16 04:58:35;;;;;;;101.65;47.08;;;26.10;2201.60;;;;;;4911317;29;20072;-82
2022/01/16 05:01:02;;;;;;;94.25;46.00;;;25.80;2201.60;;;;;;4895102;29;20024;-82
2022/01/16 05:03:29;;;;;;;100.65;49.22;;;25.80;2201.60;;;;;;4894992;29;20029;-82
2022/01/16 05:05:55;;;;;;;99.05;48.92;;;25.60;2201.60;;;;;;4908843;29;20111;-82
2022/01/16 05:08:20;;;;;;;;;;;0.90;2201.60;;;;;;4891890;29;20040;-82
2022/01/16 05:10:46;;;;;;;96.20;44.50;;;25.60;2201.60;;;;;;4892754;29;19911;-76
2022/01/16 05:18:32;;;;;;;108.53;49.30;;;0.40;2201.60;;;;;;4910788;29;20483;-75
2022/01/16 05:20:58;;;;;;;;;;;0.60;2201.60;;;;;;4909619;29;20036;-76
2022/01/16 05:23:23;;;;;;;111.60;47.20;;;0.70;2201.60;;;;;;4911515;29;19907;-76
2022/01/16 05:25:49;;;;;;;;;;;0.40;2201.60;;;;;;4900115;29;20025;-76
2022/01/16 05:28:15;;;;;;;110.75;46.75;;;0.40;2201.60;;;;;;4908477;29;19907;-83
2022/01/16 05:30:40;;;;;;;;;;;0.30;2201.60;;;;;;4893854;29;20487;-82
2022/01/16 05:33:08;;;;;;;108.03;48.20;;;0.40;2201.60;;;;;;4908896;29;20006;-81
2022/01/16 05:35:34;;;;;;;105.68;47.95;;;0.50;2201.60;;;;;;4909947;29;20016;-76
2022/01/16 05:37:59;;;;;;;;;;;0.60;2201.60;;;;;;4893902;29;20559;-82
2022/01/16 05:40:25;;;;;;;105.47;49.63;;;0.50;2201.60;;;;;;4908455;29;19967;-75
2022/01/16 05:42:51;;;;;;;;;;;0.60;2201.60;;;;;;4909121;29;20025;-75
2022/01/16 05:45:17;;;;;;;96.15;46.63;;;0.90;2201.60;;;;;;4893568;29;19907;-80
2022/01/16 05:47:42;;;;;;;;;;;25.70;2201.60;;;;;;4908128;29;20029;-82
2022/01/16 05:50:08;;;;;;;100.55;44.67;;;25.80;2201.60;;;;;;4893663;29;19914;-75
2022/01/16 05:52:34;;;;;;;;;;;25.90;2201.60;;;;;;4891528;29;20028;-75
2022/01/16 05:55:00;;;;;;;94.50;45.17;;;26.00;2201.60;;;;;;4907514;29;19929;-82
2022/01/16 05:57:25;;;;;;;;;;;26.20;2201.60;;;;;;4908150;29;20021;-81
2022/01/16 05:59:51;;;;;;;103.90;47.38;;;26.20;2201.60;;;;;;4891898;29;19908;-75
2022/01/16 06:02:17;;;;;;;;;;;26.00;2201.60;;;;;;4910140;29;20048;-82
2022/01/16 06:04:42;;;;;;;107.90;49.17;;;26.10;2201.60;;;;;;4890551;29;20469;-82
2022/01/16 06:07:08;;;;;;;;;;;26.00;2201.60;;;;;;4909744;29;20016;-76
2022/01/16 06:09:34;;;;;;;100.35;50.22;;;26.20;2201.60;;;;;;4907392;29;19957;-81
2022/01/16 06:11:59;;;;;;;;;;;26.00;2201.60;;;;;;4909232;29;20028;-82
2022/01/16 06:14:25;;;;;;;114.82;50.15;;;26.00;2201.60;;;;;;4910313;29;20268;-80
2022/01/16 06:16:51;;;;;;;;;;;26.20;2201.60;;;;;;4909424;29;20036;-75
2022/01/16 06:19:18;;;;;;;98.65;45.90;;;26.30;2201.60;;;;;;4907489;29;19998;-82
2022/01/16 06:21:44;;;;;;;93.35;47.47;;;26.20;2201.60;;;;;;4892632;29;20028;-82
2022/01/16 06:24:10;;;;;;;;;;;26.00;2201.60;;;;;;4910639;29;20020;-75
2022/01/16 06:26:35;;;;;;;95.95;43.50;;;25.70;2201.60;;;;;;4915332;29;19914;-76
2022/01/16 06:29:01;;;;;;;;;;;25.60;2201.60;;;;;;4910471;29;20031;-82
2022/01/16 06:31:27;;;;;;;95.43;45.45;;;0.90;2201.60;;;;;;4912905;29;19911;-81
2022/01/16 06:33:52;;;;;;;;;;;0.70;2201.60;;;;;;4910481;29;20497;-82
2022/01/16 06:36:18;;;;;;;89.07;42.03;;;0.50;2201.60;;;;;;4909753;29;19953;-76
2022/01/16 06:38:44;;;;;;;;;;;0.40;2201.60;;;;;;4907233;29;20052;-76
2022/01/16 06:41:10;;;;;;;92.22;41.45;;;0.20;2201.60;;;;;;4907224;29;19967;-80
2022/01/16 06:43:35;;;;;;;;;;;0.10;2201.60;;;;;;4907858;29;20024;-86
2022/01/16 06:46:01;;;;;;;90.95;42.83;;;0.10;2201.60;;;;;;4906714;29;19907;-86
2022/01/16 06:48:27;;;;;;;91.53;40.97;;;0.00;2201.60;;;;;;4908993;29;20520;-86
2022/01/16 06:50:52;;;;;;;;;;;0.00;2201.60;;;;;;4907069;29;20028;-76
2022/01/16 06:53:18;;;;;;;79.93;38.40;;;12.90;2201.60;;;;;;4899447;29;19919;-78
2022/01/16 06:55:44;;;;;;;;;;;12.90;2201.60;;;;;;4900828;29;20020;-83
2022/01/16 06:58:10;;;;;;;88.90;40.85;;;12.90;2201.60;;;;;;4907017;29;19955;-75
2022/01/16 07:00:35;;;;;;;;;;;13.00;2201.60;;;;;;4907979;29;20030;-82
2022/01/16 07:03:01;;;;;;;82.10;38.30;;;13.00;2201.60;;;;;;4896708;29;19915;-79
2022/01/16 07:05:27;;;;;;;;;;;0.00;2201.60;;;;;;4900449;29;20036;-82
2022/01/16 07:07:52;;;;;;;85.43;40.72;;;0.00;2201.60;;;;;;4891237;29;20420;-83
2022/01/16 07:10:18;;;;;;;;;;;0.10;2201.60;;;;;;4914557;29;20083;-76
2022/01/16 07:12:44;;;;;;;96.18;42.70;;;12.90;2201.60;;;;;;4889839;29;19963;-75
2022/01/16 07:15:10;;;;;;;;;;;0.00;2201.60;;;;;;4899387;29;20059;-75
2022/01/16 07:17:36;;;;;;;106.40;43.50;;;0.10;2201.60;;;;;;4898802;29;19907;-83
2022/01/16 07:20:02;;;;;;;;;;;0.20;2201.60;;;;;;4897970;29;20025;-78
2022/01/16 07:22:27;;;;;;;121.88;60.50;;;0.20;2201.60;;;;;;4898758;29;20120;-86
2022/01/16 07:24:53;;;;;;;;;;;12.90;2201.60;;;;;;4882586;29;20132;-76
2022/01/16 07:27:20;;;;;;;104.32;46.80;;;12.90;2201.60;;;;;;4881870;29;19930;-75
2022/01/16 07:29:46;;;;;;;95.32;43.95;;;0.00;2201.60;;;;;;4898116;29;20481;-75
2022/01/16 07:32:12;;;;;;;93.13;45.65;;;0.10;2201.60;;;;;;4881513;29;20041;-78
2022/01/16 07:34:37;;;;;;;;;;;0.10;2201.60;;;;;;4882778;29;20033;-76
2022/01/16 07:37:03;;;;;;;103.28;53.05;;;0.10;2201.60;;;;;;4901785;29;19914;-76
2022/01/16 07:39:29;;;;;;;;;;;0.10;2201.60;;;;;;4902317;29;20056;-76
2022/01/16 07:41:55;;;;;;;103.45;48.50;;;0.20;2201.60;;;;;;4885234;29;20002;-78
2022/01/16 07:44:21;;;;;;;;;;;0.40;2201.60;;;;;;4902701;29;20489;-75
2022/01/16 07:46:47;;;;;;;102.43;51.72;;;0.30;2201.60;;;;;;4902178;29;19907;-79
2022/01/16 07:49:12;;;;;;;;;;;0.40;2201.60;;;;;;4902855;29;20063;-80
2022/01/16 07:51:38;;;;;;;110.22;49.65;;;0.30;2201.60;;;;;;4901988;29;19937;-76
2022/01/16 07:54:04;;;;;;;;;;;0.20;2201.60;;;;;;4885874;29;20044;-76
2022/01/16 07:56:29;;;;;;;109.28;50.50;;;0.20;2201.60;;;;;;4885313;29;19914;-75
2022/01/16 07:58:55;;;;;;;;;;;0.40;2201.60;;;;;;4901538;29;20426;-76
2022/01/16 08:01:21;;;;;;;109.03;47.90;;;0.30;2201.60;;;;;;4902279;29;19908;-75
2022/01/16 08:03:46;;;;;;;;;;;0.30;2201.60;;;;;;4901388;29;20485;-83
2022/01/16 08:06:14;;;;;;;119.82;56.60;;;0.70;2201.60;;;;;;4885240;29;19914;-76
2022/01/16 08:08:40;;;;;;;158.30;68.07;;;0.80;2201.60;;;;;;4885101;29;20033;-75
2022/01/16 08:11:08;;;;;;;;;;;0.60;2201.60;;;;;;4885585;29;20036;-87
2022/01/16 08:13:35;;;;;;;128.02;58.20;;;0.70;2201.60;;;;;;4901792;29;19915;-81
2022/01/16 08:16:03;;;;;;;122.85;55.10;;;0.70;2201.60;;;;;;4884936;29;20036;-75
2022/01/16 08:18:29;;;;;;;116.63;56.33;;;25.70;2201.60;;;;;;4901742;29;20036;-75
2022/01/16 08:20:55;;;;;;;;;;;25.90;2201.60;;;;;;4901016;29;20029;-83
2022/01/16 08:23:21;;;;;;;107.30;50.05;;;26.20;2201.60;;;;;;4884720;29;20348;-83
2022/01/16 08:25:46;;;;;;;;;;;25.90;2201.60;;;;;;4901730;29;20028;-75
2022/01/16 08:28:13;;;;;;;131.45;64.88;;;25.70;2201.60;;;;;;4901736;29;20336;-84
2022/01/16 08:30:39;;;;;;;127.15;60.88;;;25.60;2201.60;;;;;;4901712;29;20100;-75
2022/01/16 08:33:04;;;;;;;;;;;25.70;2201.60;;;;;;4901778;29;20125;-76
2022/01/16 08:35:30;;;;;;;115.18;53.50;;;25.60;2201.60;;;;;;4894509;29;19942;-75
2022/01/16 08:37:56;;;;;;;;;;;0.90;2201.60;;;;;;4912036;29;20040;-82
2022/01/16 08:40:22;;;;;;;120.97;55.90;;;0.90;2201.60;;;;;;4891765;29;19911;-75
2022/01/16 08:42:47;;;;;;;;;;;25.60;2201.60;;;;;;4909377;29;20224;-85
2022/01/16 08:45:13;;;;;;;139.45;60.03;;;25.60;2201.60;;;;;;4902396;29;19911;-84
2022/01/16 08:47:39;;;;;;;;;;;25.70;2201.60;;;;;;4884245;29;20134;-75
2022/01/16 08:50:06;;;;;;;142.25;65.55;;;25.70;2201.60;;;;;;4884876;29;19907;-82
2022/01/16 08:52:32;;;;;;;150.68;70.47;;;25.70;2201.60;;;;;;4884406;29;20048;-82
2022/01/16 08:54:58;;;;;;;;;;;25.90;2201.60;;;;;;4901627;29;20521;-81
2022/01/16 08:57:23;;;;;;;127.03;58.33;;;26.00;2201.60;;;;;;4901013;29;19907;-84
2022/01/16 08:59:49;;;;;;;;;;;26.30;2201.60;;;;;;4901545;29;20028;-84
2022/01/16 09:02:15;;;;;;;124.80;55.92;;;26.20;2201.60;;;;;;4901213;29;19908;-86
2022/01/16 09:04:40;;;;;;;;;;;26.40;2201.60;;;;;;4900332;29;20492;-78
2022/01/16 09:07:06;;;;;;;125.03;60.97;;;51.30;2227.20;;;;;;4900909;29;20390;-84
2022/01/16 09:09:31;;;;;;;;;;;51.20;2227.20;;;;;;4884881;29;20071;-78
2022/01/16 09:11:58;;;;;;;157.95;65.10;;;51.40;2227.20;;;;;;4900789;29;19935;-83
2022/01/16 09:14:24;;;;;;;127.75;62.63;;;51.60;2227.20;;;;;;4900970;29;20027;-83
2022/01/16 09:16:50;;;;;;;126.45;57.10;;;51.60;2227.20;;;;;;4900870;29;20024;-75
2022/01/16 09:19:16;;;;;;;;;;;51.70;2227.20;;;;;;4907163;29;20063;-73
2022/01/16 09:21:42;;;;;;;128.00;60.22;;;51.70;2227.20;;;;;;4911806;29;20006;-75
2022/01/16 09:24:07;;;;;;;;;;;51.60;2227.20;;;;;;4897784;29;20025;-82
2022/01/16 09:26:33;;;;;;;104.38;51.85;;;51.90;2227.20;;;;;;4883191;29;20391;-76
2022/01/16 09:28:59;;;;;;;;;;;52.00;2227.20;;;;;;4900648;29;20028;-81
2022/01/16 09:31:25;;;;;;;97.70;48.65;;;76.90;2227.20;;;;;;4882988;29;19907;-75
2022/01/16 09:33:50;;;;;;;;;;;76.90;2227.20;;;;;;4900396;29;20039;-75
2022/01/16 09:36:16;;;;;;;97.80;48.30;;;77.10;2227.20;;;;;;4883314;29;19914;-76
2022/01/16 09:38:43;;;;;;;102.30;49.35;;;77.20;2227.20;;;;;;4899996;29;20044;-79
2022/01/16 09:41:08;;;;;;;113.20;52.60;;;77.00;2227.20;;;;;;4899481;29;20033;-79
2022/01/16 09:43:34;;;;;;;;;;;77.10;2227.20;;;;;;4900468;29;20032;-76
2022/01/16 09:46:01;;;;;;;93.75;47.67;;;77.40;2227.20;;;;;;4892286;29;19950;-82
2022/01/16 09:48:27;;;;;;;102.32;50.30;;;77.50;2227.20;;;;;;4918713;29;20039;-75
2022/01/16 09:50:52;;;;;;;;;;;102.40;2227.20;;;;;;4919124;29;20024;-76
2022/01/16 09:53:19;;;;;;;94.22;48.55;;;102.60;2227.20;;;;;;4901918;29;19959;-82
2022/01/16 09:55:45;;;;;;;103.40;50.92;;;102.50;2227.20;;;;;;4904929;29;20100;-76
2022/01/16 09:58:11;;;;;;;;;;;102.60;2227.20;;;;;;4895228;29;20478;-76
2022/01/16 10:00:37;;;;;;;91.68;44.65;;;102.60;2227.20;;;;;;4900656;29;19911;-76
2022/01/16 10:03:03;;;;;;;106.50;53.50;;;102.50;2227.20;;;;;;4918564;29;20035;-76
2022/01/16 10:05:35;;;;;;;113.00;57.47;;;102.70;2227.20;;;;;;4918074;29;20063;-83
2022/01/16 10:08:11;;;;;;;101.40;53.58;;;102.90;2227.20;;;;;;4917121;29;20477;-76
2022/01/16 10:10:39;;;;;;;104.88;53.22;;;103.00;2227.20;;;;;;4912478;29;20028;-77
2022/01/16 10:13:23;;;;;;;101.35;53.35;;;102.90;2227.20;;;;;;4909614;29;20057;-81
2022/01/16 10:15:54;;;;;;;101.07;50.55;;;103.10;2227.20;;;;;;4908929;29;20028;-75
2022/01/16 10:18:35;;;;;;;101.43;53.80;;;103.20;2227.20;;;;;;4907549;29;20029;-79
2022/01/16 10:21:01;;;;;;;99.50;49.63;;;103.10;2227.20;;;;;;4908830;29;20040;-79
2022/01/16 10:23:27;;;;;;;;;;;103.10;2227.20;;;;;;4915715;29;20118;-77
2022/01/16 10:25:53;;;;;;;95.70;47.20;;;128.10;2252.80;;;;;;4909175;29;19959;-77
2022/01/16 10:28:21;;;;;;;112.07;55.15;;;103.30;2227.20;;;;;;4908133;29;20036;-79
2022/01/16 10:30:52;;;;;;;137.05;68.68;;;103.20;2227.20;;;;;;4901779;29;20025;-76
2022/01/16 10:33:22;;;;;;;144.30;75.38;;;103.30;2227.20;;;;;;4892093;29;20048;-79
2022/01/16 10:35:50;;;;;;;110.40;58.20;;;103.30;2227.20;;;;;;4908664;29;20052;-75
2022/01/16 10:38:21;;;;;;;112.28;55.20;;;128.00;2252.80;;;;;;4905531;29;20072;-80
2022/01/16 10:40:52;;;;;;;137.05;66.18;;;128.20;2252.80;;;;;;4906273;29;20038;-79
2022/01/16 10:43:21;;;;;;;98.18;54.42;;;128.20;2252.80;;;;;;4889172;29;20047;-77
2022/01/16 10:45:51;;;;;;;100.15;53.72;;;128.90;2252.80;;;;;;4891256;29;20455;-77
2022/01/16 10:48:24;;;;;;;95.65;52.78;;;153.80;2252.80;;;;;;4907601;29;20097;-80
2022/01/16 10:50:51;;;;;;;101.25;53.92;;;153.70;2252.80;;;;;;4908706;29;20038;-75
2022/01/16 10:53:22;;;;;;;93.43;51.17;;;153.90;2252.80;;;;;;4906371;29;20068;-75
2022/01/16 10:55:51;;;;;;;90.47;48.92;;;154.10;2252.80;;;;;;4891731;29;20052;-78
2022/01/16 10:58:17;;;;;;;96.55;48.90;;;154.40;2252.80;;;;;;4912115;29;20111;-77
2022/01/16 11:00:44;;;;;;;;;;;179.20;2252.80;;;;;;4896403;29;20550;-74
2022/01/16 11:03:12;;;;;;;69.22;35.97;;;179.30;2252.80;;;;;;4898925;29;20002;-75
2022/01/16 11:05:43;;;;;;;91.97;49.35;;;179.30;2252.80;;;;;;4898045;29;20047;-75
2022/01/16 11:08:29;;;;;;;86.70;45.10;;;179.40;2252.80;;;;;;4886692;29;20116;-78
2022/01/16 11:10:57;;;;;;;85.55;48.25;;;179.40;2252.80;;;;;;4891775;29;20064;-79
2022/01/16 11:13:32;;;;;;;96.88;51.60;;;154.40;2252.80;;;;;;4912756;29;20036;-78
2022/01/16 11:16:07;;;;;;;95.28;53.22;;;154.50;2252.80;;;;;;4917341;29;20021;-79
2022/01/16 11:18:38;;;;;;;96.65;54.22;;;179.40;2252.80;;;;;;4917136;29;20468;-77
2022/01/16 11:23:59;;;;;;;92.00;49.70;;;179.50;2252.80;;;;;;4916890;29;20442;-77
2022/01/16 11:26:27;;;;;;;82.13;47.67;;;179.40;2252.80;;;;;;4893016;29;20060;-79
2022/01/16 11:28:54;;;;;;;100.75;51.50;;;154.40;2252.80;;;;;;4907441;29;20028;-79
2022/01/16 11:31:20;;;;;;;81.47;43.78;;;154.50;2252.80;;;;;;4905613;29;20051;-79
2022/01/16 11:33:46;;;;;;;;;;;154.40;2252.80;;;;;;4906899;29;20028;-77
2022/01/16 11:36:19;;;;;;;75.32;38.72;;;179.40;2252.80;;;;;;4906646;29;20393;-79
2022/01/16 11:38:55;;;;;;;81.32;42.42;;;179.70;2252.80;;;;;;4907533;29;20564;-76
2022/01/16 11:41:33;;;;;;;104.00;52.55;;;179.80;2252.80;;;;;;4897102;29;20045;-78
2022/01/16 11:44:01;;;;;;;76.55;43.22;;;179.60;2252.80;;;;;;4897812;29;20496;-77
2022/01/16 11:46:28;;;;;;;81.78;44.53;;;179.70;2252.80;;;;;;4881230;29;20064;-77
2022/01/16 11:49:00;;;;;;;69.43;40.03;;;179.70;2252.80;;;;;;4900672;29;20062;-77
2022/01/16 11:51:35;;;;;;;69.68;39.53;;;179.90;2252.80;;;;;;4917206;29;20020;-77
2022/01/16 11:54:15;;;;;;;67.93;38.85;;;179.60;2252.80;;;;;;4916588;29;20537;-77
2022/01/16 11:56:43;;;;;;;80.28;41.90;;;179.80;2252.80;;;;;;4908033;29;20072;-77
2022/01/16 11:59:21;;;;;;;68.57;36.80;;;179.50;2252.80;;;;;;4905169;29;20020;-77
2022/01/16 12:02:08;;;;;;;70.50;37.58;;;180.00;2252.80;;;;;;4898060;29;20024;-79
2022/01/16 12:04:34;;;;;;;88.25;46.13;;;204.80;2252.80;;;;;;4906905;29;20029;-78
2022/01/16 12:07:01;;;;;;;;;;;179.90;2252.80;;;;;;4908132;29;20052;-79
2022/01/16 12:09:46;;;;;;;69.75;37.65;;;179.80;2252.80;;;;;;4912878;29;19981;-76
2022/01/16 12:12:11;;;;;;;78.40;42.55;;;179.70;2252.80;;;;;;4899235;29;20070;-81
2022/01/16 12:14:46;;;;;;;;;;;180.00;2252.80;;;;;;4891112;29;20060;-80
2022/01/16 12:17:42;;;;;;;79.97;43.55;;;179.80;2252.80;;;;;;4909473;29;20005;-80
2022/01/16 12:20:17;;;;;;;88.28;48.00;;;179.70;2252.80;;;;;;4890894;29;20437;-79
2022/01/16 12:22:45;;;;;;;77.45;42.53;;;179.80;2252.80;;;;;;4910122;29;20032;-79
2022/01/16 12:25:29;;;;;;;83.47;45.20;;;179.90;2252.80;;;;;;4894150;29;20361;-76
2022/01/16 12:28:02;;;;;;;88.00;44.22;;;179.70;2252.80;;;;;;4907200;29;20037;-75
2022/01/16 12:30:35;;;;;;;89.63;49.22;;;179.60;2252.80;;;;;;4900742;29;20131;-75
2022/01/16 12:33:29;;;;;;;93.70;50.00;;;179.60;2252.80;;;;;;4900726;29;20036;-75
2022/01/16 12:35:55;;;;;;;81.43;42.72;;;179.50;2252.80;;;;;;4842774;29;20034;-75
2022/01/16 12:38:26;;;;;;;;;;;179.40;2252.80;;;;;;4842936;29;20050;-75
2022/01/16 12:41:17;;;;;;;126.18;62.53;;;154.40;2252.80;;;;;;4842998;29;20408;-76
2022/01/16 12:44:20;;;;;;;81.60;43.58;;;154.40;2252.80;;;;;;4842987;29;20032;-79
2022/01/16 12:46:49;;;;;;;77.32;39.85;;;154.50;2252.80;;;;;;4827148;29;20117;-79
2022/01/16 12:49:21;;;;;;;80.47;40.85;;;154.50;2252.80;;;;;;4842760;29;20034;-78
2022/01/16 12:51:50;;;;;;;68.85;38.03;;;154.40;2252.80;;;;;;4843657;29;20113;-76
2022/01/16 12:54:21;;;;;;;74.38;37.45;;;154.30;2252.80;;;;;;4843213;29;20053;-76
2022/01/16 12:56:52;;;;;;;61.42;35.55;;;154.30;2252.80;;;;;;4842878;29;20493;-75
2022/01/16 12:59:30;;;;;;;69.70;37.47;;;154.50;2252.80;;;;;;4842627;29;20126;-78
2022/01/16 13:02:01;;;;;;;78.03;41.13;;;154.40;2252.80;;;;;;4843782;29;20558;-76
2022/01/16 13:04:34;;;;;;;68.60;38.13;;;154.30;2252.80;;;;;;4841703;29;20029;-78
2022/01/16 13:07:03;;;;;;;67.10;38.22;;;154.30;2252.80;;;;;;4841380;29;20068;-77
2022/01/16 13:09:29;;;;;;;69.25;38.90;;;154.00;2252.80;;;;;;4841129;29;20042;-75
2022/01/16 13:11:59;;;;;;;76.53;38.55;;;153.90;2252.80;;;;;;4851221;29;20042;-77
2022/01/16 13:14:30;;;;;;;74.97;39.50;;;154.00;2252.80;;;;;;4907916;29;20017;-79
2022/01/16 13:16:59;;;;;;;77.68;41.90;;;153.80;2252.80;;;;;;4907336;29;20083;-77
2022/01/16 13:19:56;;;;;;;77.47;40.90;;;153.70;2252.80;;;;;;4909463;29;20103;-76